Time;durP1;ratioP1;P1;durP2;ratioP2;P2;SDS_P1;SDS_P2;PMS_P1;PMS_P2;Temp;Humidity;BMP_temperature;BMP_pressure;BME280_temperature;BME280_humidity;BME280_pressure;Samples;Min_cycle;Max_cycle;Signal;HPM_P1;HPM_P2
2022/05/16 00:00:44;;;;;;;0.50;0.50;;;17.40;84.80;;;;;;5093193;28;20517;-82
2022/05/16 00:03:12;;;;;;;0.50;0.50;;;17.30;84.70;;;;;;5092968;28;20775;-82
2022/05/16 00:05:39;;;;;;;1.20;0.60;;;17.30;85.10;;;;;;5092974;28;20444;-83
2022/05/16 00:08:06;;;;;;;0.40;0.40;;;17.20;85.00;;;;;;5092765;28;20448;-83
2022/05/16 00:10:33;;;;;;;0.70;0.60;;;17.20;86.20;;;;;;5092678;28;20483;-82
2022/05/16 00:13:01;;;;;;;3.60;1.60;;;17.10;86.40;;;;;;5092475;28;20459;-82
2022/05/16 00:15:29;;;;;;;0.60;0.60;;;17.10;87.20;;;;;;5092786;28;20448;-83
2022/05/16 00:17:56;;;;;;;0.50;0.50;;;17.10;86.50;;;;;;5092969;28;20448;-82
2022/05/16 00:20:24;;;;;;;0.97;0.60;;;17.10;86.80;;;;;;5092636;28;20472;-83
2022/05/16 00:22:51;;;;;;;1.17;0.67;;;17.00;87.40;;;;;;5092651;28;20448;-83
2022/05/16 00:25:18;;;;;;;0.70;0.60;;;17.00;87.60;;;;;;5092437;28;20432;-83
2022/05/16 00:27:45;;;;;;;6.90;0.70;;;17.00;87.80;;;;;;5092781;28;20455;-82
2022/05/16 00:30:15;;;;;;;0.60;0.60;;;17.00;87.80;;;;;;5092698;28;20483;-83
2022/05/16 00:32:42;;;;;;;0.57;0.57;;;17.00;88.30;;;;;;5092565;28;20450;-82
2022/05/16 00:35:11;;;;;;;0.53;0.50;;;17.00;88.40;;;;;;5092572;28;20454;-82
2022/05/16 00:37:39;;;;;;;1.77;0.70;;;17.00;88.60;;;;;;5092207;28;20931;-83
2022/05/16 00:40:08;;;;;;;0.53;0.53;;;17.00;89.00;;;;;;5056814;28;1050841;-83
2022/05/16 00:42:35;;;;;;;0.60;0.60;;;17.00;89.10;;;;;;5097302;28;20293;-83
2022/05/16 00:45:02;;;;;;;0.70;0.50;;;17.00;89.50;;;;;;5097497;28;20448;-82
2022/05/16 00:47:28;;;;;;;0.60;0.60;;;16.90;89.60;;;;;;5097273;28;20439;-83
2022/05/16 00:49:56;;;;;;;0.50;0.40;;;16.90;90.10;;;;;;5096964;28;20471;-83
2022/05/16 00:52:28;;;;;;;0.40;0.40;;;16.90;90.20;;;;;;5097304;28;20459;-83
2022/05/16 00:54:57;;;;;;;0.97;0.50;;;16.90;90.30;;;;;;5097290;28;20432;-83
2022/05/16 00:57:27;;;;;;;1.40;0.63;;;16.80;90.60;;;;;;5097511;28;20473;-82
2022/05/16 00:59:58;;;;;;;0.80;0.80;;;16.80;90.70;;;;;;5097304;28;20470;-82
2022/05/16 01:05:11;;;;;;;1.00;0.80;;;16.80;90.90;;;;;;5097053;28;20412;-82
2022/05/16 01:07:42;;;;;;;0.60;0.53;;;16.80;91.00;;;;;;5096903;28;20439;-82
2022/05/16 01:10:13;;;;;;;0.50;0.40;;;16.70;91.20;;;;;;5096890;28;20483;-82
2022/05/16 01:12:43;;;;;;;0.97;0.50;;;16.70;91.70;;;;;;5096992;28;20439;-83
2022/05/16 01:15:13;;;;;;;0.50;0.40;;;16.70;92.40;;;;;;5096647;28;20442;-83
2022/05/16 01:17:40;;;;;;;0.90;0.57;;;16.60;92.60;;;;;;5096571;28;20428;-83
2022/05/16 01:20:09;;;;;;;0.87;0.50;;;16.60;92.60;;;;;;5096440;28;20809;-83
2022/05/16 01:22:40;;;;;;;0.83;0.60;;;16.60;92.60;;;;;;5096749;28;20522;-82
2022/05/16 01:25:11;;;;;;;0.73;0.70;;;16.60;92.80;;;;;;5096568;28;20470;-83
2022/05/16 01:27:43;;;;;;;0.40;0.40;;;16.60;93.10;;;;;;5096791;28;20428;-83
2022/05/16 01:30:12;;;;;;;0.50;0.43;;;16.50;93.20;;;;;;5096456;28;20491;-83
2022/05/16 01:32:39;;;;;;;1.57;0.60;;;16.50;93.60;;;;;;5096266;28;20931;-83
2022/05/16 01:35:07;;;;;;;1.50;1.00;;;16.50;94.10;;;;;;5096537;28;20432;-83
2022/05/16 01:40:19;;;;;;;0.70;0.53;;;16.40;94.70;;;;;;5096410;28;20520;-83
2022/05/16 01:42:46;;;;;;;0.67;0.67;;;16.40;94.40;;;;;;5096372;28;20452;-83
2022/05/16 01:45:13;;;;;;;0.73;0.50;;;16.50;94.90;;;;;;5096689;28;20656;-83
2022/05/16 01:47:40;;;;;;;0.80;0.60;;;16.50;95.00;;;;;;5096442;28;20456;-82
2022/05/16 01:50:07;;;;;;;1.23;0.50;;;16.40;95.80;;;;;;5096080;28;20487;-83
2022/05/16 01:52:34;;;;;;;0.60;0.53;;;16.40;95.80;;;;;;5095656;28;20432;-83
2022/05/16 01:55:01;;;;;;;0.50;0.43;;;16.40;96.30;;;;;;5095862;28;20931;-83
2022/05/16 01:57:29;;;;;;;0.57;0.57;;;16.40;96.60;;;;;;5095747;28;20966;-83
2022/05/16 01:59:55;;;;;;;0.57;0.50;;;16.40;96.60;;;;;;5095618;28;20440;-83
2022/05/16 02:02:22;;;;;;;0.90;0.80;;;16.40;96.00;;;;;;5095975;28;20439;-83
2022/05/16 02:04:49;;;;;;;1.90;0.60;;;16.40;95.70;;;;;;5096023;28;20886;-82
2022/05/16 02:07:16;;;;;;;0.60;0.60;;;16.50;95.20;;;;;;5095864;28;20464;-83
2022/05/16 02:09:43;;;;;;;0.97;0.60;;;16.70;94.30;;;;;;5095754;28;20433;-82
2022/05/16 02:12:11;;;;;;;0.67;0.60;;;16.80;93.60;;;;;;5095646;28;20796;-82
2022/05/16 02:14:39;;;;;;;0.63;0.60;;;17.00;92.90;;;;;;5095753;28;20924;-83
2022/05/16 02:17:06;;;;;;;0.60;0.60;;;17.10;92.80;;;;;;5095336;28;20452;-82
2022/05/16 02:19:32;;;;;;;0.50;0.50;;;17.20;93.10;;;;;;5096424;28;20459;-82
2022/05/16 02:24:43;;;;;;;0.63;0.53;;;17.20;92.90;;;;;;5095699;28;20485;-82
2022/05/16 02:27:12;;;;;;;0.87;0.47;;;17.20;92.90;;;;;;5095749;28;20792;-82
2022/05/16 02:29:40;;;;;;;0.70;0.70;;;17.20;92.90;;;;;;5095276;28;20452;-82
2022/05/16 02:32:08;;;;;;;0.60;0.60;;;17.20;92.30;;;;;;5095101;28;20450;-82
2022/05/16 02:34:35;;;;;;;0.60;0.60;;;17.20;92.20;;;;;;5095753;28;20479;-83
2022/05/16 02:37:01;;;;;;;0.60;0.53;;;17.20;92.40;;;;;;5095307;28;20467;-82
2022/05/16 02:39:28;;;;;;;0.53;0.53;;;17.20;92.70;;;;;;5095458;28;20444;-82
2022/05/16 02:41:55;;;;;;;0.80;0.80;;;17.20;93.00;;;;;;5094656;28;20480;-83
2022/05/16 02:44:22;;;;;;;1.10;0.83;;;17.20;93.30;;;;;;5095219;28;20477;-82
2022/05/16 02:46:50;;;;;;;1.00;0.90;;;17.20;93.70;;;;;;5095132;28;20456;-82
2022/05/16 02:49:17;;;;;;;2.07;1.10;;;17.20;94.30;;;;;;5095044;28;20467;-82
2022/05/16 02:51:44;;;;;;;0.60;0.60;;;17.20;94.60;;;;;;5094690;28;20491;-82
2022/05/16 02:54:11;;;;;;;0.70;0.70;;;17.10;94.40;;;;;;5094644;28;20444;-83
2022/05/16 02:56:37;;;;;;;0.80;0.80;;;17.10;94.50;;;;;;5095338;28;20444;-83
2022/05/16 02:59:04;;;;;;;0.60;0.60;;;17.10;94.90;;;;;;5094569;28;20852;-83
2022/05/16 03:01:34;;;;;;;0.60;0.60;;;17.10;95.30;;;;;;5094772;28;20452;-83
2022/05/16 03:04:02;;;;;;;1.17;0.60;;;17.10;95.90;;;;;;5094264;28;20509;-83
2022/05/16 03:06:29;;;;;;;0.70;0.63;;;17.10;96.30;;;;;;5094434;28;20962;-82
2022/05/16 03:08:56;;;;;;;1.57;0.70;;;17.10;96.60;;;;;;5094703;28;20432;-82
2022/05/16 03:11:23;;;;;;;0.73;0.50;;;17.10;97.20;;;;;;5094329;28;20487;-83
2022/05/16 03:13:50;;;;;;;0.50;0.50;;;17.10;97.30;;;;;;5094379;28;20468;-82
2022/05/16 03:16:17;;;;;;;0.50;0.50;;;17.10;97.60;;;;;;5094533;28;20443;-82
2022/05/16 03:18:44;;;;;;;2.20;0.53;;;17.00;98.40;;;;;;5094414;28;20802;-83
2022/05/16 03:21:12;;;;;;;1.17;0.70;;;17.00;98.60;;;;;;5094090;28;20513;-82
2022/05/16 03:23:39;;;;;;;0.60;0.60;;;17.00;99.00;;;;;;5094240;28;20436;-82
2022/05/16 03:26:06;;;;;;;0.90;0.80;;;17.00;99.60;;;;;;5094037;28;20965;-82
2022/05/16 03:28:34;;;;;;;0.60;0.60;;;16.90;99.90;;;;;;5094102;28;20432;-82
2022/05/16 03:31:01;;;;;;;0.60;0.60;;;17.00;99.90;;;;;;5093929;28;20480;-82
2022/05/16 03:33:28;;;;;;;0.80;0.70;;;16.90;99.90;;;;;;5094201;28;20440;-82
2022/05/16 03:35:56;;;;;;;0.70;0.70;;;16.90;99.90;;;;;;5094983;28;20455;-83
2022/05/16 03:41:11;;;;;;;1.00;0.60;;;16.90;99.90;;;;;;5093704;28;20463;-83
2022/05/16 03:43:40;;;;;;;0.80;0.60;;;16.90;99.90;;;;;;5094039;28;20439;-83
2022/05/16 03:46:08;;;;;;;1.20;0.70;;;16.80;99.90;;;;;;5093667;28;20862;-82
2022/05/16 03:48:36;;;;;;;0.50;0.50;;;16.90;99.90;;;;;;5093916;28;20458;-82
2022/05/16 03:51:04;;;;;;;0.50;0.50;;;16.90;99.90;;;;;;5093865;28;20483;-82
2022/05/16 03:53:35;;;;;;;0.60;0.60;;;16.90;99.90;;;;;;5093946;28;20448;-83
2022/05/16 03:56:02;;;;;;;0.57;0.57;;;16.90;99.90;;;;;;5093991;28;20436;-83
2022/05/16 03:58:29;;;;;;;0.80;0.80;;;16.90;99.90;;;;;;5093497;28;20456;-83
2022/05/16 04:00:56;;;;;;;1.10;0.87;;;16.90;99.90;;;;;;5093758;28;20455;-82
2022/05/16 04:03:23;;;;;;;0.97;0.60;;;16.90;99.90;;;;;;5093762;28;20455;-83
2022/05/16 04:05:50;;;;;;;0.97;0.97;;;17.00;99.90;;;;;;5093402;28;20939;-82
2022/05/16 04:08:17;;;;;;;0.93;0.50;;;17.00;99.90;;;;;;5093699;28;20454;-83
2022/05/16 04:10:45;;;;;;;1.00;0.60;;;17.10;99.90;;;;;;5093529;28;20499;-83
2022/05/16 04:13:12;;;;;;;1.00;0.50;;;17.20;99.90;;;;;;5093297;28;20822;-82
2022/05/16 04:15:39;;;;;;;0.80;0.80;;;17.20;99.90;;;;;;5093477;28;20454;-82
2022/05/16 04:18:07;;;;;;;0.60;0.60;;;17.20;99.90;;;;;;5093263;28;20453;-82
2022/05/16 04:20:33;;;;;;;1.40;0.73;;;17.20;99.90;;;;;;5093458;28;20457;-82
2022/05/16 04:23:00;;;;;;;0.90;0.83;;;17.20;99.90;;;;;;5093556;28;20488;-82
2022/05/16 04:25:27;;;;;;;0.70;0.70;;;17.20;99.90;;;;;;5093604;28;20456;-82
2022/05/16 04:27:56;;;;;;;0.70;0.63;;;17.30;99.90;;;;;;5094205;28;20853;-82
2022/05/16 04:30:22;;;;;;;0.83;0.70;;;17.30;99.90;;;;;;5093311;28;20468;-82
2022/05/16 04:32:49;;;;;;;1.77;0.80;;;17.30;99.90;;;;;;5093160;28;21040;-82
2022/05/16 04:35:16;;;;;;;0.70;0.60;;;17.30;99.90;;;;;;5093433;28;20420;-82
2022/05/16 04:37:42;;;;;;;1.30;0.80;;;17.30;99.90;;;;;;5093133;28;20428;-83
2022/05/16 04:40:11;;;;;;;1.17;0.70;;;17.40;99.90;;;;;;5093815;28;20498;-82
2022/05/16 04:42:40;;;;;;;0.77;0.77;;;17.40;99.90;;;;;;5093268;28;20440;-83
2022/05/16 04:45:12;;;;;;;0.77;0.77;;;17.50;99.90;;;;;;5093382;28;20808;-82
2022/05/16 04:47:39;;;;;;;0.73;0.70;;;17.50;99.90;;;;;;5093330;28;20431;-82
2022/05/16 04:50:08;;;;;;;0.60;0.60;;;17.60;99.90;;;;;;5092923;28;21013;-82
2022/05/16 04:52:35;;;;;;;0.50;0.50;;;17.60;99.90;;;;;;5093188;28;20479;-82
2022/05/16 04:55:02;;;;;;;0.80;0.53;;;17.60;99.90;;;;;;5092967;28;20448;-82
2022/05/16 04:57:29;;;;;;;1.03;0.80;;;17.70;99.90;;;;;;5093448;28;20532;-82
2022/05/16 04:59:55;;;;;;;1.73;0.90;;;17.70;99.90;;;;;;5092822;28;20443;-82
2022/05/16 05:02:24;;;;;;;0.40;0.40;;;17.70;99.90;;;;;;5093153;28;20448;-83
2022/05/16 05:04:50;;;;;;;0.70;0.70;;;17.80;99.90;;;;;;5092862;28;20436;-83
2022/05/16 05:07:17;;;;;;;1.13;0.80;;;17.80;99.90;;;;;;5092821;28;20433;-82
2022/05/16 05:15:27;;;;;;;1.30;1.20;;;17.80;99.90;;;;;;5010925;28;20481;-82
2022/05/16 05:17:55;;;;;;;0.60;0.60;;;17.80;99.90;;;;;;5010892;28;20438;-83
2022/05/16 05:20:22;;;;;;;0.53;0.53;;;17.80;99.90;;;;;;5046678;28;20816;-82
2022/05/16 05:22:49;;;;;;;0.97;0.70;;;17.80;99.90;;;;;;5093160;28;20439;-82
2022/05/16 05:25:18;;;;;;;1.53;0.70;;;17.80;99.90;;;;;;5092627;28;20814;-82
2022/05/16 05:27:47;;;;;;;0.67;0.67;;;17.80;99.90;;;;;;5096288;28;20448;-82
2022/05/16 05:30:16;;;;;;;0.80;0.80;;;17.80;99.90;;;;;;5096364;28;20448;-82
2022/05/16 05:32:43;;;;;;;0.93;0.70;;;17.90;99.90;;;;;;5096211;28;21024;-83
2022/05/16 05:35:12;;;;;;;0.80;0.70;;;17.90;99.90;;;;;;5096521;28;20497;-83
2022/05/16 05:37:39;;;;;;;0.50;0.50;;;17.90;99.90;;;;;;5096345;28;20436;-82
2022/05/16 05:40:08;;;;;;;0.50;0.50;;;18.00;99.90;;;;;;5095901;28;20487;-82
2022/05/16 05:42:35;;;;;;;0.60;0.60;;;18.00;99.90;;;;;;5096385;28;20444;-83
2022/05/16 05:45:04;;;;;;;0.80;0.70;;;18.10;99.90;;;;;;5096089;28;20797;-82
2022/05/16 05:47:31;;;;;;;0.70;0.70;;;18.10;99.90;;;;;;5096330;28;20432;-82
2022/05/16 05:49:59;;;;;;;0.73;0.60;;;18.20;99.90;;;;;;5096209;28;20804;-83
2022/05/16 05:52:28;;;;;;;0.50;0.40;;;18.30;99.90;;;;;;5096114;28;20491;-83
2022/05/16 05:54:56;;;;;;;0.70;0.70;;;18.30;99.90;;;;;;5096140;28;20440;-82
2022/05/16 05:57:23;;;;;;;1.00;1.00;;;18.40;99.90;;;;;;5095760;28;20452;-83
2022/05/16 05:59:50;;;;;;;1.73;0.70;;;18.50;99.90;;;;;;5096235;28;20435;-82
2022/05/16 06:02:16;;;;;;;0.60;0.60;;;18.50;99.90;;;;;;5095983;28;20447;-83
2022/05/16 06:04:43;;;;;;;0.80;0.80;;;18.70;99.90;;;;;;5096198;28;20451;-82
2022/05/16 06:07:10;;;;;;;1.37;0.63;;;18.80;99.90;;;;;;5096164;28;20456;-82
2022/05/16 06:09:38;;;;;;;0.60;0.60;;;18.90;99.90;;;;;;5095839;28;20455;-82
2022/05/16 06:12:06;;;;;;;1.10;0.80;;;19.00;99.90;;;;;;5095634;28;21002;-82
2022/05/16 06:14:33;;;;;;;0.70;0.67;;;19.20;99.90;;;;;;5095847;28;20432;-81
2022/05/16 06:17:00;;;;;;;0.70;0.70;;;19.20;99.90;;;;;;5095744;28;20447;-82
2022/05/16 06:19:27;;;;;;;1.27;1.17;;;19.30;99.90;;;;;;5095556;28;20460;-82
2022/05/16 06:21:54;;;;;;;0.83;0.70;;;19.30;99.90;;;;;;5095547;28;20456;-82
2022/05/16 06:27:08;;;;;;;0.70;0.70;;;19.50;99.90;;;;;;5095746;28;20403;-82
2022/05/16 06:29:35;;;;;;;1.47;0.80;;;19.70;99.90;;;;;;5095567;28;20438;-82
2022/05/16 06:32:02;;;;;;;0.80;0.73;;;20.00;99.90;;;;;;5094656;28;20545;-82
2022/05/16 06:34:29;;;;;;;0.80;0.80;;;20.30;99.90;;;;;;5095413;28;20435;-81
2022/05/16 06:36:56;;;;;;;0.80;0.80;;;20.70;99.90;;;;;;5094747;28;20458;-82
2022/05/16 06:39:22;;;;;;;1.23;1.10;;;21.10;99.90;;;;;;5094931;28;20462;-82
2022/05/16 06:41:49;;;;;;;1.40;0.70;;;21.20;99.90;;;;;;5094806;28;20479;-82
2022/05/16 06:44:19;;;;;;;0.77;0.77;;;21.40;99.90;;;;;;5095239;28;20564;-82
2022/05/16 06:46:46;;;;;;;0.95;0.85;;;21.60;99.90;;;;;;5095356;28;20202;-82
2022/05/16 06:49:13;;;;;;;0.80;0.63;;;21.90;99.90;;;;;;5095157;28;20541;-82
2022/05/16 06:51:40;;;;;;;0.70;0.70;;;22.10;99.90;;;;;;5094734;28;20228;-82
2022/05/16 06:54:07;;;;;;;1.25;1.15;;;22.30;99.90;;;;;;5095009;28;20209;-82
2022/05/16 06:56:34;;;;;;;0.57;0.57;;;22.50;99.90;;;;;;5095248;28;20204;-83
2022/05/16 06:59:01;;;;;;;1.50;0.80;;;22.60;99.90;;;;;;5095746;28;20202;-82
2022/05/16 07:01:29;;;;;;;1.58;0.88;;;22.90;99.90;;;;;;5095017;28;20228;-82
2022/05/16 07:03:55;;;;;;;1.23;1.13;;;23.20;99.90;;;;;;5094880;28;20186;-82
2022/05/16 07:06:22;;;;;;;0.95;0.88;;;23.50;99.90;;;;;;5094783;28;20205;-83
2022/05/16 07:08:49;;;;;;;0.85;0.80;;;23.60;99.90;;;;;;5094730;28;20205;-83
2022/05/16 07:11:16;;;;;;;1.65;1.30;;;23.90;99.90;;;;;;5094537;28;20619;-82
2022/05/16 07:13:43;;;;;;;1.48;0.82;;;23.70;99.90;;;;;;5094366;28;20201;-82
2022/05/16 07:16:09;;;;;;;1.05;0.90;;;23.50;99.90;;;;;;5094505;28;20197;-82
2022/05/16 07:18:37;;;;;;;1.60;1.20;;;23.30;99.90;;;;;;5094405;28;20549;-83
2022/05/16 07:21:05;;;;;;;2.40;1.10;;;23.30;99.90;;;;;;5094467;28;20224;-83
2022/05/16 07:23:32;;;;;;;0.88;0.75;;;23.20;99.90;;;;;;5094421;28;20208;-83
2022/05/16 07:28:42;;;;;;;0.80;0.80;;;23.00;99.90;;;;;;5094450;28;20227;-82
2022/05/16 07:31:10;;;;;;;0.73;0.73;;;23.10;99.90;;;;;;5094140;28;20221;-83
2022/05/16 07:33:38;;;;;;;2.90;1.42;;;23.30;99.90;;;;;;5094325;28;20190;-82
2022/05/16 07:36:06;;;;;;;3.17;0.90;;;23.50;99.90;;;;;;5094807;28;20193;-83
2022/05/16 07:38:33;;;;;;;1.05;0.90;;;23.70;99.90;;;;;;5094237;28;20181;-82
2022/05/16 07:41:00;;;;;;;1.30;0.82;;;23.80;99.90;;;;;;5093713;28;20225;-83
2022/05/16 07:43:27;;;;;;;1.15;1.08;;;23.60;99.90;;;;;;5094340;28;20204;-87
2022/05/16 07:45:54;;;;;;;0.90;0.80;;;23.40;99.90;;;;;;5094121;28;20202;-83
2022/05/16 07:48:21;;;;;;;1.92;1.20;;;23.20;99.90;;;;;;5094326;28;20193;-83
2022/05/16 07:50:50;;;;;;;1.50;1.10;;;22.90;99.90;;;;;;5093651;28;20228;-83
2022/05/16 07:53:17;;;;;;;0.93;0.93;;;22.70;99.90;;;;;;5093825;28;20252;-82
2022/05/16 07:55:49;;;;;;;1.07;0.97;;;22.30;99.90;;;;;;5093827;28;20208;-82
2022/05/16 07:58:16;;;;;;;1.20;1.10;;;22.10;99.90;;;;;;5093896;28;20189;-82
2022/05/16 08:00:43;;;;;;;0.93;0.90;;;22.00;99.90;;;;;;5093701;28;20711;-82
2022/05/16 08:03:11;;;;;;;4.07;1.17;;;21.90;99.90;;;;;;5094064;28;20194;-82
2022/05/16 08:05:39;;;;;;;1.03;0.93;;;21.80;99.90;;;;;;5094043;28;20197;-82
2022/05/16 08:10:52;;;;;;;1.20;1.10;;;21.70;99.90;;;;;;5093723;28;20628;-82
2022/05/16 08:13:19;;;;;;;1.23;0.90;;;21.60;99.90;;;;;;5093311;28;20221;-82
2022/05/16 08:15:46;;;;;;;1.93;1.03;;;21.70;99.90;;;;;;5093560;28;20938;-82
2022/05/16 08:18:13;;;;;;;3.37;1.87;;;21.70;99.90;;;;;;5093660;28;20452;-82
2022/05/16 08:20:42;;;;;;;1.33;1.23;;;21.80;99.90;;;;;;5093189;28;20970;-82
2022/05/16 08:23:12;;;;;;;1.00;0.90;;;22.00;99.90;;;;;;5093259;28;20935;-82
2022/05/16 08:25:39;;;;;;;1.33;1.17;;;22.20;99.90;;;;;;5093515;28;20450;-82
2022/05/16 08:28:07;;;;;;;0.80;0.80;;;22.50;99.90;;;;;;5093548;28;20592;-82
2022/05/16 08:30:34;;;;;;;1.27;1.00;;;22.90;99.90;;;;;;5093187;28;20213;-82
2022/05/16 08:33:02;;;;;;;1.27;0.82;;;23.10;99.90;;;;;;5093369;28;20253;-82
2022/05/16 08:35:30;;;;;;;1.17;1.00;;;23.50;99.90;;;;;;5093143;28;20205;-82
2022/05/16 08:40:54;;;;;;;1.27;1.17;;;24.20;99.90;;;;;;5093246;28;20282;-82
2022/05/16 08:43:39;;;;;;;1.45;0.80;;;24.40;99.90;;;;;;5093387;28;20185;-82
2022/05/16 08:46:17;;;;;;;1.65;1.25;;;24.40;99.90;;;;;;5093379;28;20277;-82
2022/05/16 08:48:48;;;;;;;2.20;1.33;;;24.30;99.90;;;;;;5093084;28;20178;-82
2022/05/16 08:51:20;;;;;;;1.17;1.10;;;24.30;99.90;;;;;;5093262;28;20225;-82
2022/05/16 08:53:51;;;;;;;1.05;0.60;;;24.20;99.90;;;;;;5092904;28;20210;-83
2022/05/16 08:56:23;;;;;;;1.00;1.00;;;24.20;99.90;;;;;;5092952;28;20197;-83
2022/05/16 08:58:57;;;;;;;2.65;1.15;;;24.30;99.90;;;;;;5093245;28;20239;-82
2022/05/16 09:01:29;;;;;;;1.60;0.95;;;24.20;99.90;;;;;;5094840;28;20228;-83
2022/05/16 09:04:01;;;;;;;1.20;1.10;;;24.30;99.90;;;;;;5097256;28;20541;-83
2022/05/16 09:06:35;;;;;;;1.30;1.00;;;24.40;99.90;;;;;;5097126;28;20182;-83
2022/05/16 09:09:08;;;;;;;6.68;1.10;;;24.90;99.90;;;;;;5097112;28;20182;-83
2022/05/16 09:11:47;;;;;;;1.17;0.90;;;25.30;99.30;;;;;;5096620;28;20590;-83
2022/05/16 09:14:31;;;;;;;1.15;1.00;;;25.50;99.30;;;;;;5097022;28;20193;-83
2022/05/16 09:17:01;;;;;;;0.90;0.88;;;25.70;99.90;;;;;;5096726;28;20209;-83
2022/05/16 09:19:47;;;;;;;0.80;0.80;;;25.80;98.90;;;;;;5096859;28;20582;-83
2022/05/16 09:22:22;;;;;;;2.05;0.80;;;25.60;97.80;;;;;;5096585;28;20185;-83
2022/05/16 09:24:54;;;;;;;1.02;0.70;;;25.40;97.20;;;;;;5096793;28;20185;-83
2022/05/16 09:30:16;;;;;;;4.68;1.10;;;25.40;99.00;;;;;;5096439;28;20294;-83
2022/05/16 09:32:45;;;;;;;2.63;1.30;;;25.20;98.10;;;;;;5096510;28;20704;-83
2022/05/16 09:35:23;;;;;;;0.73;0.70;;;25.20;97.30;;;;;;5096295;28;20680;-82
2022/05/16 09:37:54;;;;;;;1.02;0.70;;;25.10;95.60;;;;;;5096631;28;20174;-83
2022/05/16 09:40:22;;;;;;;1.10;1.00;;;25.00;97.00;;;;;;5096410;28;20233;-83
2022/05/16 09:42:50;;;;;;;1.73;1.10;;;25.00;96.70;;;;;;5096422;28;20200;-81
2022/05/16 09:45:23;;;;;;;1.33;1.00;;;25.30;97.00;;;;;;5096356;28;20698;-88
2022/05/16 09:47:50;;;;;;;1.17;1.08;;;25.60;95.40;;;;;;5096706;28;20243;-88
2022/05/16 09:50:21;;;;;;;1.00;1.00;;;25.90;95.80;;;;;;5096331;28;20228;-87
2022/05/16 09:52:51;;;;;;;1.10;1.10;;;26.00;94.50;;;;;;5096805;28;20236;-88
2022/05/16 09:55:30;;;;;;;0.80;0.80;;;26.20;94.40;;;;;;5096535;28;20193;-83
2022/05/16 09:58:00;;;;;;;1.00;0.70;;;26.20;93.30;;;;;;5096283;28;20188;-82
2022/05/16 10:00:38;;;;;;;1.23;0.82;;;26.00;93.50;;;;;;5096175;28;20222;-83
2022/05/16 10:03:23;;;;;;;0.80;0.80;;;25.70;93.80;;;;;;5096136;28;20182;-82
2022/05/16 10:05:52;;;;;;;1.45;0.95;;;25.50;93.80;;;;;;5096051;28;20662;-88
2022/05/16 10:08:31;;;;;;;1.05;0.90;;;25.10;94.30;;;;;;5096295;28;20186;-88
2022/05/16 10:11:01;;;;;;;1.38;1.00;;;25.20;95.10;;;;;;5096237;28;20232;-89
2022/05/16 10:13:30;;;;;;;1.42;1.27;;;25.20;94.50;;;;;;5095825;28;20236;-88
2022/05/16 10:15:59;;;;;;;1.70;1.60;;;25.20;95.20;;;;;;5096145;28;20186;-88
2022/05/16 10:18:29;;;;;;;2.20;0.98;;;24.90;94.70;;;;;;5096060;28;20255;-88
2022/05/16 10:20:59;;;;;;;2.17;1.40;;;24.90;96.00;;;;;;5095898;28;20252;-88
2022/05/16 10:23:29;;;;;;;1.27;0.85;;;24.90;95.70;;;;;;5095982;28;20182;-88
2022/05/16 10:26:00;;;;;;;6.88;1.75;;;24.80;96.10;;;;;;5096167;28;20528;-89
2022/05/16 10:28:33;;;;;;;1.10;0.90;;;24.70;95.40;;;;;;5095890;28;20205;-89
2022/05/16 10:33:47;;;;;;;3.60;0.90;;;24.60;96.50;;;;;;5095846;28;20274;-88
2022/05/16 10:36:24;;;;;;;0.60;0.60;;;24.70;96.70;;;;;;5095894;28;20633;-90
2022/05/16 10:38:58;;;;;;;0.75;0.75;;;24.60;95.80;;;;;;5095504;28;20526;-89
2022/05/16 10:41:28;;;;;;;1.05;0.60;;;24.50;96.30;;;;;;5095430;28;20244;-88
2022/05/16 10:44:06;;;;;;;0.77;0.77;;;24.30;95.20;;;;;;5095293;28;20536;-82
2022/05/16 10:46:36;;;;;;;2.15;0.60;;;24.10;96.00;;;;;;5095310;28;20201;-82
2022/05/16 10:49:06;;;;;;;0.60;0.60;;;24.00;95.50;;;;;;5094903;28;20599;-82
2022/05/16 10:51:40;;;;;;;1.23;0.63;;;24.00;95.80;;;;;;5094965;28;20240;-82
2022/05/16 10:54:10;;;;;;;0.80;0.70;;;23.80;95.80;;;;;;5095173;28;20567;-87
2022/05/16 10:57:07;;;;;;;0.55;0.55;;;23.60;96.90;;;;;;5095216;28;20198;-87
2022/05/16 10:59:48;;;;;;;1.02;0.57;;;23.40;97.20;;;;;;5079257;28;20289;-87
2022/05/16 11:02:25;;;;;;;4.60;0.98;;;23.20;98.00;;;;;;5095033;28;20181;-83
2022/05/16 11:05:04;;;;;;;1.30;0.75;;;23.10;99.10;;;;;;5094924;28;20614;-83
2022/05/16 11:07:38;;;;;;;0.88;0.65;;;22.90;98.30;;;;;;5094722;28;20221;-83
2022/05/16 11:10:10;;;;;;;0.60;0.53;;;22.70;98.20;;;;;;5094775;28;20316;-82
2022/05/16 11:12:44;;;;;;;0.40;0.40;;;22.50;97.00;;;;;;5094779;28;20209;-88
2022/05/16 11:15:26;;;;;;;0.67;0.50;;;22.30;96.70;;;;;;5095214;28;20192;-88
2022/05/16 11:18:15;;;;;;;0.60;0.53;;;22.10;96.50;;;;;;5094694;28;20181;-87
2022/05/16 11:20:45;;;;;;;0.60;0.57;;;21.90;96.10;;;;;;5094407;28;20974;-87
2022/05/16 11:23:22;;;;;;;0.43;0.40;;;21.80;95.80;;;;;;5094101;28;20836;-85
2022/05/16 11:25:55;;;;;;;0.60;0.40;;;21.70;96.20;;;;;;5094602;28;20430;-82
2022/05/16 11:28:31;;;;;;;0.93;0.50;;;21.50;96.20;;;;;;5094470;28;20472;-82
2022/05/16 11:31:03;;;;;;;0.50;0.50;;;21.30;96.70;;;;;;5094384;28;20478;-82
2022/05/16 11:33:37;;;;;;;1.03;0.50;;;21.10;96.90;;;;;;5094195;28;20473;-81
2022/05/16 11:36:15;;;;;;;0.83;0.83;;;20.90;97.60;;;;;;5093972;28;20431;-82
2022/05/16 11:38:57;;;;;;;0.90;0.40;;;20.80;97.90;;;;;;5094034;28;20903;-83
2022/05/16 11:41:36;;;;;;;1.07;0.33;;;20.80;99.70;;;;;;5093786;28;20490;-85
2022/05/16 11:44:19;;;;;;;0.40;0.40;;;20.50;99.90;;;;;;5094232;28;20409;-83
2022/05/16 11:46:53;;;;;;;0.40;0.40;;;19.90;99.90;;;;;;5094265;28;20444;-83
2022/05/16 11:49:31;;;;;;;0.50;0.50;;;19.40;99.90;;;;;;5093832;28;20883;-82
2022/05/16 11:52:18;;;;;;;0.70;0.53;;;18.90;99.90;;;;;;5094218;28;20468;-82
2022/05/16 11:54:53;;;;;;;0.50;0.50;;;18.50;99.90;;;;;;5093811;28;20532;-82
2022/05/16 12:03:19;;;;;;;0.30;0.30;;;17.90;99.90;;;;;;5094423;28;20426;-86
2022/05/16 12:05:52;;;;;;;0.40;0.40;;;17.70;99.90;;;;;;5094032;28;20436;-86
2022/05/16 12:08:44;;;;;;;0.40;0.40;;;17.70;99.90;;;;;;5093818;28;20439;-85
2022/05/16 12:11:17;;;;;;;1.13;0.40;;;17.60;99.90;;;;;;5093335;28;20468;-86
2022/05/16 12:14:07;;;;;;;0.30;0.30;;;17.50;99.90;;;;;;5093894;28;20467;-86
2022/05/16 12:16:42;;;;;;;0.50;0.50;;;17.40;99.90;;;;;;5093424;28;20937;-86
2022/05/16 12:19:17;;;;;;;0.77;0.50;;;17.40;99.90;;;;;;5094212;28;20475;-86
2022/05/16 12:21:59;;;;;;;0.40;0.40;;;17.30;99.90;;;;;;5093523;28;20463;-86
2022/05/16 12:24:30;;;;;;;1.30;0.53;;;17.20;99.90;;;;;;5093963;28;20424;-86
2022/05/16 12:27:29;;;;;;;7.97;0.90;;;17.20;99.90;;;;;;5093651;28;20432;-86
2022/05/16 12:29:58;;;;;;;0.37;0.30;;;17.00;99.90;;;;;;5090258;28;20513;-86
2022/05/16 12:32:51;;;;;;;1.47;0.50;;;17.00;99.90;;;;;;5093616;28;20951;-86
2022/05/16 12:35:44;;;;;;;0.40;0.33;;;16.90;99.90;;;;;;5095139;28;20435;-87
2022/05/16 12:38:15;;;;;;;0.53;0.50;;;17.00;99.90;;;;;;5097960;28;20428;-86
2022/05/16 12:41:02;;;;;;;0.40;0.40;;;17.20;99.90;;;;;;5097497;28;20483;-86
2022/05/16 12:43:40;;;;;;;0.60;0.40;;;17.30;99.90;;;;;;5047327;28;20436;-87
2022/05/16 12:46:19;;;;;;;0.50;0.40;;;17.40;99.90;;;;;;5097566;28;20416;-85
2022/05/16 12:49:28;;;;;;;1.30;0.50;;;17.60;99.90;;;;;;5097556;28;20471;-85
2022/05/16 12:51:59;;;;;;;0.50;0.40;;;17.90;99.90;;;;;;5097341;28;20490;-84
2022/05/16 12:54:56;;;;;;;2.53;0.40;;;18.10;99.90;;;;;;5097029;28;20493;-85
2022/05/16 12:57:51;;;;;;;0.60;0.40;;;18.20;99.90;;;;;;5097005;28;20435;-85
2022/05/16 13:00:20;;;;;;;0.80;0.80;;;18.20;99.90;;;;;;5093976;28;20478;-82
2022/05/16 13:02:55;;;;;;;1.00;0.50;;;18.30;99.90;;;;;;5097198;28;20454;-81
2022/05/16 13:05:33;;;;;;;0.60;0.60;;;18.50;99.90;;;;;;5097156;28;20432;-81
2022/05/16 13:08:14;;;;;;;0.97;0.50;;;18.50;99.90;;;;;;5096779;28;20938;-81
2022/05/16 13:10:48;;;;;;;0.73;0.60;;;18.50;99.90;;;;;;5096825;28;20468;-81
2022/05/16 13:13:30;;;;;;;0.83;0.60;;;18.70;99.90;;;;;;5097038;28;20475;-85
2022/05/16 13:16:05;;;;;;;1.37;0.60;;;18.90;99.90;;;;;;5096957;28;20436;-79
2022/05/16 13:18:34;;;;;;;0.60;0.60;;;19.00;99.90;;;;;;5096738;28;20448;-80
2022/05/16 13:21:05;;;;;;;1.10;1.10;;;19.20;99.90;;;;;;5096762;28;20454;-80
2022/05/16 13:23:33;;;;;;;1.13;0.70;;;19.30;99.90;;;;;;5096745;28;20523;-82
2022/05/16 13:31:39;;;;;;;1.37;0.83;;;19.70;99.90;;;;;;5096351;28;20554;-81
2022/05/16 13:34:06;;;;;;;0.63;0.63;;;19.90;99.90;;;;;;5096561;28;20471;-81
2022/05/16 13:36:34;;;;;;;3.27;1.00;;;19.90;99.90;;;;;;5096691;28;20427;-81
2022/05/16 13:39:09;;;;;;;1.57;1.33;;;19.90;99.90;;;;;;5096554;28;20427;-81
2022/05/16 13:41:37;;;;;;;0.87;0.70;;;20.00;99.90;;;;;;5096043;28;20489;-81
2022/05/16 13:44:04;;;;;;;1.40;0.63;;;20.10;99.90;;;;;;5096315;28;20792;-78
2022/05/16 13:46:33;;;;;;;1.80;0.60;;;20.10;99.90;;;;;;5095973;28;20451;-79
2022/05/16 13:49:01;;;;;;;5.93;0.60;;;20.00;99.90;;;;;;5096300;28;20530;-80